createdAt,value
2022-09-23T00:01:43.444Z,97943.25
2022-09-23T00:03:52.128Z,97940.75
2022-09-23T00:06:03.582Z,97939.28
2022-09-23T00:08:14.326Z,97940.13
2022-09-23T00:10:22.142Z,97939.38
2022-09-23T00:12:30.357Z,97942.78
2022-09-23T00:14:39.956Z,97941.94
2022-09-23T00:16:50.562Z,97934.78
2022-09-23T00:18:58.309Z,97942.25
2022-09-23T00:21:06.615Z,97939.53
2022-09-23T00:23:14.348Z,97935.25
2022-09-23T00:25:22.327Z,97934.78
2022-09-23T00:27:31.240Z,97945.38
2022-09-23T00:29:39.034Z,97938.06
2022-09-23T00:31:46.792Z,97937.81
2022-09-23T00:34:02.102Z,97927.00
2022-09-23T00:36:15.115Z,97934.16
2022-09-23T00:38:22.827Z,97937.59
2022-09-23T00:40:30.642Z,97936.97
2022-09-23T00:42:58.068Z,97942.09
2022-09-23T00:45:07.905Z,97926.69
2022-09-23T00:47:20.319Z,97928.50
2022-09-23T00:49:33.465Z,97921.78
2022-09-23T00:51:44.161Z,97931.81
2022-09-23T00:53:54.146Z,97929.41
2022-09-23T00:56:07.486Z,97923.56
2022-09-23T00:58:20.145Z,97917.41
2022-09-23T01:00:28.176Z,97915.53
2022-09-23T01:02:37.721Z,97922.81
2022-09-23T01:04:48.276Z,97914.88
2022-09-23T01:06:56.146Z,97917.56
2022-09-23T01:09:03.937Z,97916.88
2022-09-23T01:11:25.352Z,97920.59
2022-09-23T01:13:44.767Z,97910.03
2022-09-23T01:15:59.469Z,97914.69
2022-09-23T01:18:16.730Z,97911.72
2022-09-23T01:20:42.227Z,97916.63
2022-09-23T01:22:58.453Z,97909.78
2022-09-23T01:25:35.064Z,97914.50
2022-09-23T01:28:03.836Z,97912.78
2022-09-23T01:30:21.684Z,97906.44
2022-09-23T01:32:52.527Z,97905.56
2022-09-23T01:35:09.607Z,97903.91
2022-09-23T01:37:24.945Z,97906.25
2022-09-23T01:39:39.003Z,97899.50
2022-09-23T01:41:57.182Z,97895.84
2022-09-23T01:44:08.626Z,97901.44
2022-09-23T01:46:21.520Z,97897.88
2022-09-23T01:48:38.297Z,97893.09
2022-09-23T01:51:01.413Z,97894.03
2022-09-23T01:53:17.518Z,97888.88
2022-09-23T01:55:31.001Z,97888.13
2022-09-23T01:57:46.163Z,97892.69
2022-09-23T01:59:58.812Z,97882.97
2022-09-23T02:02:11.860Z,97883.13
2022-09-23T02:04:28.300Z,97889.97
2022-09-23T02:06:41.457Z,97885.06
2022-09-23T02:08:56.586Z,97880.84
2022-09-23T02:11:10.203Z,97887.47
2022-09-23T02:13:22.653Z,97887.63
2022-09-23T02:15:36.622Z,97894.16
2022-09-23T02:17:52.049Z,97885.50
2022-09-23T02:20:07.566Z,97882.09
2022-09-23T02:22:20.270Z,97877.56
2022-09-23T02:24:32.910Z,97878.41
2022-09-23T02:26:46.519Z,97875.63
2022-09-23T02:28:59.848Z,97869.72
2022-09-23T02:31:13.178Z,97865.59
2022-09-23T02:33:26.552Z,97874.50
2022-09-23T02:35:42.945Z,97866.66
2022-09-23T02:37:56.521Z,97871.38
2022-09-23T02:40:13.147Z,97866.66
2022-09-23T02:42:25.067Z,97873.19
2022-09-23T02:44:33.290Z,97869.66
2022-09-23T02:46:42.515Z,97865.38
2022-09-23T02:48:56.943Z,97865.72
2022-09-23T02:51:07.787Z,97869.81
2022-09-23T02:53:16.203Z,97865.59
2022-09-23T02:55:26.463Z,97867.50
2022-09-23T02:57:34.898Z,97864.22
2022-09-23T02:59:43.683Z,97865.38
2022-09-23T03:02:05.410Z,97865.16
2022-09-23T03:04:23.341Z,97863.84
2022-09-23T03:06:37.366Z,97863.84
2022-09-23T03:08:53.357Z,97864.47
2022-09-23T03:11:07.593Z,97861.03
2022-09-23T03:13:26.078Z,97860.31
2022-09-23T03:15:40.726Z,97857.94
2022-09-23T03:17:55.541Z,97858.59
2022-09-23T03:20:07.435Z,97857.78
2022-09-23T03:22:24.207Z,97856.63
2022-09-23T03:24:34.971Z,97854.63
2022-09-23T03:26:45.251Z,97855.66
2022-09-23T03:28:53.575Z,97863.00
2022-09-23T03:31:02.731Z,97862.28
2022-09-23T03:33:14.666Z,97865.03
2022-09-23T03:35:26.340Z,97860.69
2022-09-23T03:37:42.541Z,97858.50
2022-09-23T03:39:54.644Z,97862.28
2022-09-23T03:42:06.437Z,97857.16
2022-09-23T03:44:15.562Z,97858.78
2022-09-23T03:46:24.122Z,97852.81
2022-09-23T03:48:31.926Z,97846.72
2022-09-23T03:50:39.628Z,97848.44
2022-09-23T03:52:50.629Z,97845.22
2022-09-23T03:55:01.451Z,97842.56
2022-09-23T03:57:09.490Z,97837.00
2022-09-23T03:59:17.441Z,97845.59
2022-09-23T04:01:25.195Z,97844.78
2022-09-23T04:03:33.241Z,97830.31
2022-09-23T04:05:41.319Z,97833.81
2022-09-23T04:07:53.129Z,97834.00
2022-09-23T04:10:00.791Z,97828.94
2022-09-23T04:12:09.580Z,97823.59
2022-09-23T04:14:17.912Z,97830.69
2022-09-23T04:16:26.080Z,97823.00
2022-09-23T04:18:34.138Z,97823.28
2022-09-23T04:20:42.297Z,97822.16
2022-09-23T04:22:52.975Z,97825.94
2022-09-23T04:25:00.705Z,97817.38
2022-09-23T04:27:08.572Z,97822.66
2022-09-23T04:29:16.316Z,97817.31
2022-09-23T04:31:24.492Z,97817.00
2022-09-23T04:33:32.463Z,97822.00
2022-09-23T04:35:40.852Z,97817.56
2022-09-23T04:37:53.214Z,97813.34
2022-09-23T04:40:01.048Z,97804.00
2022-09-23T04:43:02.381Z,97815.38
2022-09-23T04:45:11.246Z,97818.50
2022-09-23T04:47:19.423Z,97808.63
2022-09-23T04:49:27.152Z,97805.19
2022-09-23T04:51:34.943Z,97809.16
2022-09-23T04:53:48.602Z,97808.75
2022-09-23T04:55:56.377Z,97806.28
2022-09-23T04:58:04.174Z,97808.09
2022-09-23T05:00:15.242Z,97814.19
2022-09-23T05:02:23.075Z,97808.09
2022-09-23T05:04:31.551Z,97807.97
2022-09-23T05:06:39.485Z,97812.88
2022-09-23T05:08:53.743Z,97821.41
2022-09-23T05:11:02.128Z,97808.22
2022-09-23T05:13:09.823Z,97809.50
2022-09-23T05:15:17.599Z,97815.34
2022-09-23T05:17:25.438Z,97810.00
2022-09-23T05:19:33.185Z,97820.44
2022-09-23T05:21:40.911Z,97822.88
2022-09-23T05:23:54.306Z,97824.78
2022-09-23T05:26:03.516Z,97829.19
2022-09-23T05:28:40.979Z,97828.00
2022-09-23T05:30:48.919Z,97830.63
2022-09-23T05:32:56.704Z,97822.47
2022-09-23T05:35:04.649Z,97825.69
2022-09-23T05:37:12.535Z,97831.94
2022-09-23T05:39:22.889Z,97828.13
2022-09-23T05:41:30.787Z,97826.13
2022-09-23T05:43:38.783Z,97831.22
2022-09-23T05:45:46.538Z,97838.03
2022-09-23T05:47:54.231Z,97834.59
2022-09-23T05:50:02.010Z,97844.00
2022-09-23T05:52:09.768Z,97850.13
2022-09-23T05:54:17.664Z,97843.59
2022-09-23T05:56:30.273Z,97846.59
2022-09-23T05:58:38.177Z,97857.16
2022-09-23T06:00:46.668Z,97841.88
2022-09-23T06:02:54.464Z,97848.28
2022-09-23T06:05:02.328Z,97850.84
2022-09-23T06:07:10.022Z,97849.81
2022-09-23T06:09:18.229Z,97849.91
2022-09-23T06:11:29.916Z,97847.00
2022-09-23T06:13:39.047Z,97852.28
2022-09-23T06:15:47.785Z,97848.41
2022-09-23T06:17:56.943Z,97854.06
2022-09-23T06:20:04.872Z,97856.41
2022-09-23T06:22:14.505Z,97854.22
2022-09-23T06:24:25.989Z,97847.59
2022-09-23T06:26:41.414Z,97850.72
2022-09-23T06:28:49.075Z,97852.06
2022-09-23T06:31:00.232Z,97846.75
2022-09-23T06:33:08.255Z,97845.34
2022-09-23T06:35:24.649Z,97841.91
2022-09-23T06:37:35.688Z,97850.25
2022-09-23T06:39:43.433Z,97842.34
2022-09-23T06:41:54.357Z,97842.88
2022-09-23T06:44:06.236Z,97841.59
2022-09-23T06:46:18.992Z,97844.97
2022-09-23T06:48:27.497Z,97848.25
2022-09-23T06:50:35.188Z,97848.88
2022-09-23T06:52:42.959Z,97852.81
2022-09-23T06:54:50.946Z,97847.66
2022-09-23T06:57:01.246Z,97860.81
2022-09-23T06:59:09.622Z,97861.41
2022-09-23T07:01:20.148Z,97857.88
2022-09-23T07:03:28.033Z,97860.16
2022-09-23T07:05:35.754Z,97860.44
2022-09-23T07:07:43.608Z,97859.41
2022-09-23T07:09:51.411Z,97860.16
2022-09-23T07:12:01.701Z,97866.56
2022-09-23T07:14:09.602Z,97871.53
2022-09-23T07:16:17.476Z,97874.25
2022-09-23T07:18:25.946Z,97877.16
2022-09-23T07:20:34.871Z,97879.81
2022-09-23T07:22:42.586Z,97880.06
2022-09-23T07:24:50.350Z,97893.19
2022-09-23T07:26:58.227Z,97890.28
2022-09-23T07:29:08.525Z,97893.09
2022-09-23T07:31:31.623Z,97870.06
2022-09-23T07:33:45.908Z,97860.94
2022-09-23T07:35:53.642Z,97856.81
2022-09-23T07:38:01.607Z,97856.88
2022-09-23T07:40:10.148Z,97846.56
2022-09-23T07:42:17.869Z,97837.66
2022-09-23T07:44:29.250Z,97838.78
2022-09-23T07:46:39.088Z,97841.84
2022-09-23T07:48:47.887Z,97835.84
2022-09-23T07:50:55.628Z,97846.75
2022-09-23T07:53:04.221Z,97835.78
2022-09-23T07:55:11.991Z,97852.84
2022-09-23T07:57:22.043Z,97847.63
2022-09-23T07:59:32.314Z,97847.41
2022-09-23T08:01:42.640Z,97851.94
2022-09-23T08:03:50.397Z,97849.56
2022-09-23T08:06:07.296Z,97848.69
2022-09-23T08:08:15.049Z,97850.91
2022-09-23T08:10:22.852Z,97848.69
2022-09-23T08:12:36.648Z,97846.03
2022-09-23T08:14:47.450Z,97857.19
2022-09-23T08:16:55.636Z,97859.06
2022-09-23T08:21:31.598Z,97848.53
2022-09-23T08:23:39.318Z,97851.34
2022-09-23T08:25:48.642Z,97853.72
2022-09-23T08:27:57.071Z,97856.59
2022-09-23T08:30:08.373Z,97855.97
2022-09-23T08:32:16.183Z,97852.47
2022-09-23T08:34:25.006Z,97857.25
2022-09-23T08:36:34.139Z,97864.91
2022-09-23T08:38:42.439Z,97852.81
2022-09-23T08:40:52.086Z,97860.31
2022-09-23T08:43:00.223Z,97855.97
2022-09-23T08:45:18.779Z,97851.63
2022-09-23T08:47:30.258Z,97864.31
2022-09-23T08:49:42.098Z,97847.75
2022-09-23T08:51:52.002Z,97854.47
2022-09-23T08:54:01.991Z,97845.94
2022-09-23T08:56:16.430Z,97842.66
2022-09-23T08:58:39.295Z,97837.13
2022-09-23T09:00:58.077Z,97826.72
2022-09-23T09:03:15.953Z,97835.59
2022-09-23T09:05:29.280Z,97849.38
2022-09-23T09:07:40.534Z,97850.81
2022-09-23T09:09:53.986Z,97850.59
2022-09-23T09:12:09.249Z,97848.56
2022-09-23T09:14:25.289Z,97855.94
2022-09-23T09:17:02.679Z,97854.50
2022-09-23T09:19:17.194Z,97870.28
2022-09-23T09:21:29.393Z,97858.38
2022-09-23T09:23:43.403Z,97875.66
2022-09-23T09:25:53.717Z,97878.34
2022-09-23T09:28:02.467Z,97875.94
2022-09-23T09:30:15.003Z,97889.97
2022-09-23T09:32:40.760Z,97869.69
2022-09-23T09:34:55.977Z,97882.31
2022-09-23T09:37:12.665Z,97871.38
2022-09-23T09:39:25.460Z,97869.72
2022-09-23T09:41:34.024Z,97873.81
2022-09-23T09:43:44.275Z,97875.13
2022-09-23T09:46:08.460Z,97880.19
2022-09-23T09:48:24.656Z,97866.16
2022-09-23T09:50:50.036Z,97859.66
2022-09-23T09:53:19.093Z,97864.72
2022-09-23T09:55:30.584Z,97867.59
2022-09-23T09:57:42.417Z,97867.66
2022-09-23T09:59:50.160Z,97888.13
2022-09-23T10:02:17.927Z,97890.06
2022-09-23T10:04:37.878Z,97887.09
2022-09-23T10:06:45.578Z,97891.56
2022-09-23T10:09:28.093Z,97867.94
2022-09-23T10:11:36.931Z,97883.03
2022-09-23T10:13:46.481Z,97872.69
2022-09-23T10:15:55.107Z,97869.00
2022-09-23T10:18:04.115Z,97880.94
2022-09-23T10:20:18.127Z,97891.91
2022-09-23T10:22:30.312Z,97900.09
2022-09-23T10:24:39.131Z,97887.69
2022-09-23T10:26:56.525Z,97887.19
2022-09-23T10:29:05.934Z,97882.72
2022-09-23T10:31:16.756Z,97882.22
2022-09-23T10:33:30.530Z,97868.00
2022-09-23T10:35:57.331Z,97863.75
2022-09-23T10:38:05.089Z,97851.09
2022-09-23T10:40:34.658Z,97852.94
2022-09-23T10:43:07.978Z,97849.91
2022-09-23T10:45:38.543Z,97839.53
2022-09-23T10:47:57.672Z,97829.16
2022-09-23T10:50:23.200Z,97838.88
2022-09-23T10:52:46.379Z,97837.19
2022-09-23T10:55:07.538Z,97823.81
2022-09-23T10:57:42.055Z,97831.91
2022-09-23T11:00:04.279Z,97822.50
2022-09-23T11:02:30.304Z,97817.63
2022-09-23T11:05:02.921Z,97808.41
2022-09-23T11:07:20.831Z,97803.16
2022-09-23T11:09:46.690Z,97794.81
2022-09-23T11:12:08.414Z,97812.50
2022-09-23T11:14:41.437Z,97804.22
2022-09-23T11:17:06.609Z,97799.97
2022-09-23T11:19:43.403Z,97781.28
2022-09-23T11:22:03.946Z,97776.28
2022-09-23T11:24:42.919Z,97774.03
2022-09-23T11:26:57.937Z,97755.94
2022-09-23T11:29:31.263Z,97755.47
2022-09-23T11:31:47.434Z,97751.06
2022-09-23T11:34:06.975Z,97739.13
2022-09-23T11:36:24.015Z,97743.84
2022-09-23T11:38:38.643Z,97729.53
2022-09-23T11:40:54.962Z,97732.66
2022-09-23T11:43:09.172Z,97741.97
2022-09-23T11:45:21.529Z,97743.97
2022-09-23T11:47:48.706Z,97739.13
2022-09-23T11:50:02.994Z,97737.97
2022-09-23T11:52:19.601Z,97746.16
2022-09-23T11:54:32.712Z,97747.69
2022-09-23T11:56:49.261Z,97744.53
2022-09-23T11:59:04.948Z,97744.75
2022-09-23T12:01:22.257Z,97740.50
2022-09-23T12:03:44.904Z,97749.31
2022-09-23T12:06:00.965Z,97746.88
2022-09-23T12:08:17.963Z,97757.50
2022-09-23T12:10:28.900Z,97746.44
2022-09-23T12:12:47.859Z,97729.88
2022-09-23T12:15:01.640Z,97722.97
2022-09-23T12:17:30.598Z,97721.16
2022-09-23T12:20:07.829Z,97719.66
2022-09-23T12:22:31.532Z,97722.34
2022-09-23T12:24:52.550Z,97714.78
2022-09-23T12:27:06.131Z,97706.56
2022-09-23T12:29:17.681Z,97714.00
2022-09-23T12:31:30.766Z,97724.25
2022-09-23T12:33:39.215Z,97730.88
2022-09-23T12:35:49.197Z,97722.03
2022-09-23T12:37:57.414Z,97726.56
2022-09-23T12:40:19.377Z,97717.41
2022-09-23T12:42:30.898Z,97715.06
2022-09-23T12:44:44.620Z,97712.72
2022-09-23T12:47:28.984Z,97702.59
2022-09-23T12:49:39.731Z,97705.06
2022-09-23T12:52:27.766Z,97710.81
2022-09-23T12:54:35.583Z,97706.25
2022-09-23T12:57:02.009Z,97687.06
2022-09-23T12:59:28.137Z,97683.53
2022-09-23T13:01:41.534Z,97682.19
2022-09-23T13:04:02.953Z,97687.53
2022-09-23T13:06:23.880Z,97686.78
2022-09-23T13:08:32.039Z,97696.56
2022-09-23T13:10:46.056Z,97687.88
2022-09-23T13:13:00.790Z,97678.00
2022-09-23T13:15:19.921Z,97683.53
2022-09-23T13:17:39.488Z,97668.94
2022-09-23T13:19:49.804Z,97669.84
2022-09-23T13:22:16.053Z,97669.91
2022-09-23T13:24:37.647Z,97664.53
2022-09-23T13:26:48.534Z,97668.22
2022-09-23T13:28:59.677Z,97669.78
2022-09-23T13:31:09.209Z,97668.00
2022-09-23T13:33:28.530Z,97674.91
2022-09-23T13:35:40.091Z,97652.28
2022-09-23T13:37:49.107Z,97662.59
2022-09-23T13:40:10.424Z,97658.66
2022-09-23T13:42:27.150Z,97660.34
2022-09-23T13:44:34.892Z,97658.09
2022-09-23T13:46:47.865Z,97650.41
2022-09-23T13:48:59.215Z,97646.84
2022-09-23T13:51:11.587Z,97658.47
2022-09-23T13:53:26.072Z,97647.19
2022-09-23T13:55:37.373Z,97630.63
2022-09-23T13:57:45.824Z,97634.16
2022-09-23T13:59:53.637Z,97618.25
2022-09-23T14:02:09.270Z,97628.16
2022-09-23T14:04:29.344Z,97619.53
2022-09-23T14:06:44.105Z,97630.47
2022-09-23T14:08:53.785Z,97630.75
2022-09-23T14:11:06.298Z,97639.94
2022-09-23T14:13:26.035Z,97644.09
2022-09-23T14:15:34.222Z,97627.41
2022-09-23T14:17:41.969Z,97618.75
2022-09-23T14:19:53.044Z,97628.56
2022-09-23T14:22:00.834Z,97628.81
2022-09-23T14:24:17.072Z,97620.78
2022-09-23T14:26:26.221Z,97631.16
2022-09-23T14:28:34.166Z,97628.41
2022-09-23T14:30:43.206Z,97621.81
2022-09-23T14:32:51.316Z,97617.81
2022-09-23T14:35:22.173Z,97620.00
2022-09-23T14:37:45.756Z,97614.41
2022-09-23T14:39:57.677Z,97615.03
2022-09-23T14:42:09.931Z,97607.19
2022-09-23T14:44:26.795Z,97612.16
2022-09-23T14:46:36.449Z,97608.38
2022-09-23T14:48:45.667Z,97610.06
2022-09-23T14:51:00.313Z,97600.22
2022-09-23T14:53:29.699Z,97608.16
2022-09-23T14:55:37.618Z,97599.59
2022-09-23T14:57:45.885Z,97591.81
2022-09-23T14:59:56.104Z,97589.38
2022-09-23T15:02:03.839Z,97585.38
2022-09-23T15:04:17.675Z,97583.75
2022-09-23T15:06:28.844Z,97585.59
2022-09-23T15:08:37.766Z,97590.22
2022-09-23T15:10:46.060Z,97575.75
2022-09-23T15:12:55.402Z,97584.44
2022-09-23T15:15:03.151Z,97574.84
2022-09-23T15:17:32.977Z,97575.81
2022-09-23T15:19:41.307Z,97579.84
2022-09-23T15:21:55.771Z,97571.47
2022-09-23T15:24:03.879Z,97567.75
2022-09-23T15:26:14.173Z,97563.38
2022-09-23T15:28:23.759Z,97557.59
2022-09-23T15:30:32.309Z,97556.19
2022-09-23T15:32:42.350Z,97555.09
2022-09-23T15:34:52.064Z,97559.94
2022-09-23T15:37:02.426Z,97560.41
2022-09-23T15:39:10.781Z,97568.81
2022-09-23T15:41:19.088Z,97562.13
2022-09-23T15:43:28.230Z,97569.53
2022-09-23T15:45:40.318Z,97566.16
2022-09-23T15:47:48.201Z,97561.31
2022-09-23T15:49:55.932Z,97571.00
2022-09-23T15:52:10.359Z,97571.03
2022-09-23T15:54:30.726Z,97564.13
2022-09-23T15:56:42.374Z,97570.22
2022-09-23T15:58:50.655Z,97569.78
2022-09-23T16:00:59.902Z,97570.66
2022-09-23T16:03:10.792Z,97559.63
2022-09-23T16:05:28.024Z,97566.44
2022-09-23T16:07:38.315Z,97560.66
2022-09-23T16:09:49.325Z,97570.97
2022-09-23T16:11:57.022Z,97551.91
2022-09-23T16:14:05.157Z,97550.34
2022-09-23T16:16:13.125Z,97550.94
2022-09-23T16:18:21.051Z,97551.78
2022-09-23T16:20:30.775Z,97553.19
2022-09-23T16:22:41.878Z,97552.50
2022-09-23T16:24:50.425Z,97558.56
2022-09-23T16:27:00.758Z,97559.13
2022-09-23T16:29:11.005Z,97558.28
2022-09-23T16:31:20.655Z,97560.81
2022-09-23T16:33:28.550Z,97556.75
2022-09-23T16:35:36.943Z,97552.31
2022-09-23T16:37:47.955Z,97547.66
2022-09-23T16:39:55.750Z,97549.47
2022-09-23T16:42:03.527Z,97552.13
2022-09-23T16:44:12.625Z,97549.28
2022-09-23T16:46:22.616Z,97541.34
2022-09-23T16:48:30.419Z,97538.66
2022-09-23T16:50:38.291Z,97540.03
2022-09-23T16:52:48.709Z,97544.78
2022-09-23T16:54:56.495Z,97545.94
2022-09-23T16:57:04.344Z,97545.16
2022-09-23T16:59:12.962Z,97558.09
2022-09-23T17:01:36.615Z,97547.78
2022-09-23T17:03:41.858Z,97556.75
2022-09-23T17:05:50.857Z,97550.38
2022-09-23T17:08:01.270Z,97548.59
2022-09-23T17:10:11.947Z,97541.34
2022-09-23T17:12:25.291Z,97545.00
2022-09-23T17:14:34.733Z,97547.78
2022-09-23T17:16:42.753Z,97545.25
2022-09-23T17:18:50.571Z,97553.56
2022-09-23T17:21:06.978Z,97552.91
2022-09-23T17:23:17.299Z,97553.16
2022-09-23T17:25:25.124Z,97553.56
2022-09-23T17:27:35.159Z,97546.16
2022-09-23T17:38:33.212Z,97547.59
2022-09-23T17:40:41.620Z,97556.84
2022-09-23T17:42:50.431Z,97551.41
2022-09-23T17:44:59.465Z,97549.25
2022-09-23T17:47:08.333Z,97545.25
2022-09-23T17:49:17.945Z,97542.81
2022-09-23T17:51:27.287Z,97554.81
2022-09-23T17:53:42.369Z,97550.63
2022-09-23T17:55:58.357Z,97555.97
2022-09-23T17:58:06.172Z,97552.97
2022-09-23T18:00:15.540Z,97551.84
2022-09-23T18:02:23.698Z,97555.28
2022-09-23T18:04:31.570Z,97551.34
2022-09-23T18:06:41.592Z,97553.06
2022-09-23T18:08:53.481Z,97545.91
2022-09-23T18:11:01.213Z,97543.78
2022-09-23T18:13:08.918Z,97541.41
2022-09-23T18:15:19.953Z,97537.78
2022-09-23T18:17:28.038Z,97540.09
2022-09-23T18:19:35.761Z,97539.41
2022-09-23T18:21:45.119Z,97534.38
2022-09-23T18:23:59.764Z,97538.53
2022-09-23T18:26:16.887Z,97539.50
2022-09-23T18:28:24.737Z,97541.44
2022-09-23T18:30:33.658Z,97535.63
2022-09-23T18:32:41.400Z,97539.97
2022-09-23T18:34:49.147Z,97535.38
2022-09-23T18:36:57.287Z,97540.47
2022-09-23T18:39:08.119Z,97533.94
2022-09-23T18:41:16.154Z,97533.31
2022-09-23T18:43:25.803Z,97536.13
2022-09-23T18:45:33.904Z,97537.34
2022-09-23T18:47:54.104Z,97528.63
2022-09-23T18:50:14.600Z,97532.72
2022-09-23T18:52:25.341Z,97526.66
2022-09-23T18:54:35.671Z,97518.88
2022-09-23T18:56:46.983Z,97524.22
2022-09-23T18:58:56.407Z,97525.19
2022-09-23T19:01:11.916Z,97523.38
2022-09-23T19:03:19.881Z,97512.06
2022-09-23T19:05:27.827Z,97518.41
2022-09-23T19:07:35.576Z,97515.50
2022-09-23T19:09:46.013Z,97517.81
2022-09-23T19:11:54.444Z,97513.78
2022-09-23T19:14:03.320Z,97526.03
2022-09-23T19:16:13.394Z,97533.09
2022-09-23T19:18:21.401Z,97528.94
2022-09-23T19:20:29.223Z,97535.03
2022-09-23T19:22:39.224Z,97532.22
2022-09-23T19:24:50.238Z,97533.81
2022-09-23T19:26:58.432Z,97536.38
2022-09-23T19:29:08.463Z,97530.66
2022-09-23T19:31:22.391Z,97523.72
2022-09-23T19:33:30.332Z,97526.88
2022-09-23T19:35:38.941Z,97523.50
2022-09-23T19:37:46.814Z,97519.50
2022-09-23T19:40:00.368Z,97517.41
2022-09-23T19:42:08.104Z,97525.78
2022-09-23T19:44:16.673Z,97532.22
2022-09-23T19:46:24.656Z,97527.88
2022-09-23T19:48:32.554Z,97532.09
2022-09-23T19:50:41.651Z,97525.34
2022-09-23T19:52:51.775Z,97521.19
2022-09-23T19:55:04.053Z,97525.78
2022-09-23T19:57:11.841Z,97516.94
2022-09-23T19:59:23.470Z,97515.84
2022-09-23T20:01:34.902Z,97516.34
2022-09-23T20:03:42.666Z,97509.28
2022-09-23T20:05:57.676Z,97507.34
2022-09-23T20:08:06.740Z,97503.22
2022-09-23T20:10:18.450Z,97506.72
2022-09-23T20:12:26.294Z,97507.00
2022-09-23T20:14:34.098Z,97505.19
2022-09-23T20:16:41.973Z,97504.91
2022-09-23T20:18:55.501Z,97500.44
2022-09-23T20:21:03.179Z,97501.88
2022-09-23T20:23:10.907Z,97495.34
2022-09-23T20:25:21.253Z,97485.50
2022-09-23T20:27:27.150Z,97486.38
2022-09-23T20:29:34.918Z,97487.81
2022-09-23T20:31:44.638Z,97483.56
2022-09-23T20:33:55.002Z,97480.41
2022-09-23T20:36:02.734Z,97489.38
2022-09-23T20:38:11.506Z,97486.56
2022-09-23T20:40:23.149Z,97479.78
2022-09-23T20:42:31.216Z,97481.34
2022-09-23T20:44:38.936Z,97478.44
2022-09-23T20:46:48.783Z,97480.47
2022-09-23T20:48:57.069Z,97476.47
2022-09-23T20:51:05.463Z,97485.06
2022-09-23T20:53:13.187Z,97487.25
2022-09-23T20:55:23.531Z,97482.09
2022-09-23T20:57:31.527Z,97482.22
2022-09-23T20:59:39.214Z,97484.88
2022-09-23T21:01:47.891Z,97478.84
2022-09-23T21:03:56.192Z,97469.13
2022-09-23T21:06:04.263Z,97482.69
2022-09-23T21:08:12.633Z,97481.56
2022-09-23T21:10:23.033Z,97474.16
2022-09-23T21:12:31.751Z,97476.91
2022-09-23T21:14:39.606Z,97474.72
2022-09-23T21:16:47.816Z,97474.38
2022-09-23T21:18:55.844Z,97475.84
2022-09-23T21:21:04.102Z,97469.16
2022-09-23T21:23:11.918Z,97470.75
2022-09-23T21:25:28.298Z,97467.47
2022-09-23T21:27:39.316Z,97481.47
2022-09-23T21:29:47.048Z,97472.84
2022-09-23T21:31:54.831Z,97466.81
2022-09-23T21:34:04.161Z,97463.28
2022-09-23T21:36:13.308Z,97464.13
2022-09-23T21:38:21.025Z,97458.34
2022-09-23T21:40:41.225Z,97472.13
2022-09-23T21:42:52.220Z,97474.50
2022-09-23T21:45:00.015Z,97480.41
2022-09-23T21:47:07.979Z,97475.03
2022-09-23T21:49:15.936Z,97475.38
2022-09-23T21:51:25.857Z,97472.03
2022-09-23T21:53:36.429Z,97473.81
2022-09-23T21:55:44.225Z,97468.41
2022-09-23T21:57:54.559Z,97473.09
2022-09-23T22:00:02.791Z,97470.75
2022-09-23T22:02:12.614Z,97470.03
2022-09-23T22:04:21.274Z,97467.50
2022-09-23T22:06:30.581Z,97474.41
2022-09-23T22:08:40.271Z,97473.53
2022-09-23T22:10:47.962Z,97473.75
2022-09-23T22:12:55.730Z,97471.84
2022-09-23T22:15:03.451Z,97464.91
2022-09-23T22:17:16.548Z,97469.97
2022-09-23T22:19:24.306Z,97475.25
2022-09-23T22:21:33.857Z,97470.47
2022-09-23T22:23:41.558Z,97469.88
2022-09-23T22:25:49.295Z,97462.63
2022-09-23T22:28:12.089Z,97462.31
2022-09-23T22:30:32.204Z,97462.69
2022-09-23T22:32:51.537Z,97460.88
2022-09-23T22:35:02.162Z,97464.72
2022-09-23T22:37:09.866Z,97463.94
2022-09-23T22:39:17.715Z,97470.56
2022-09-23T22:41:26.429Z,97470.66
2022-09-23T22:43:37.809Z,97472.69
2022-09-23T22:45:53.215Z,97473.88
2022-09-23T22:48:00.915Z,97470.50
2022-09-23T22:50:10.612Z,97466.47
2022-09-23T22:52:24.188Z,97461.69
2022-09-23T22:54:34.146Z,97463.38
2022-09-23T22:56:42.198Z,97466.38
2022-09-23T22:58:52.546Z,97462.25
2022-09-23T23:01:02.608Z,97465.94
2022-09-23T23:03:10.300Z,97454.28
2022-09-23T23:05:18.258Z,97448.31
2022-09-23T23:07:25.926Z,97450.13
2022-09-23T23:09:33.609Z,97445.75
2022-09-23T23:11:43.864Z,97446.16
2022-09-23T23:13:54.500Z,97445.06
2022-09-23T23:16:05.430Z,97444.13
2022-09-23T23:18:13.168Z,97446.88
2022-09-23T23:20:21.088Z,97439.41
2022-09-23T23:22:30.437Z,97433.63
2022-09-23T23:24:38.154Z,97441.94
2022-09-23T23:26:46.704Z,97429.59
2022-09-23T23:28:58.210Z,97427.47
2022-09-23T23:31:06.852Z,97434.41
2022-09-23T23:33:14.911Z,97429.53
2022-09-23T23:35:22.594Z,97434.53
2022-09-23T23:37:31.751Z,97421.06
2022-09-23T23:39:39.436Z,97416.69
2022-09-23T23:41:48.553Z,97414.22
2022-09-23T23:44:01.297Z,97424.56
2022-09-23T23:46:09.807Z,97418.63
2022-09-23T23:48:17.583Z,97428.25
2022-09-23T23:50:26.034Z,97423.00
2022-09-23T23:52:33.732Z,97427.81
2022-09-23T23:54:41.395Z,97424.41
2022-09-23T23:56:49.107Z,97408.78
2022-09-23T23:59:00.981Z,97411.13
